Mountain GroveWeather Station
Hourly Leaf Wetness Data

Source: University of Missouri

To the bottom of the page

Year Month Day Hour Leaf Wetness Total
Precipitation
Avg. Temp Avg. Rel.
Humidity
Wind
Speed
CST mV in mm F C % mph
2017 09 07 1:00 Wet 357.7 0.0 0.00 45.9 7.7 94.6 0.2
2017 09 07 2:00 Wet 378.0 0.0 0.00 45.4 7.4 96.7 0.0
2017 09 07 3:00 Wet 388.5 0.0 0.00 44.9 7.2 96.1 0.3
2017 09 07 4:00 Wet 393.6 0.0 0.00 44.9 7.2 96 0.0
2017 09 07 5:00 Wet 396.8 0.0 0.00 44.1 6.7 96.7 0.0
2017 09 07 6:00 Wet 390.5 0.0 0.00 44.1 6.7 97.3 0.0
2017 09 07 7:00 Wet 357.2 0.0 0.00 46.8 8.2 96.1 0.0
2017 09 07 8:00 Wet 291.8 0.0 0.00 57.3 14.1 72.99 1.9
2017 09 07 9:00 263.1 0.0 0.00 63.6 17.6 54.67 4.2
2017 09 07 10:00 262.5 0.0 0.00 67.0 19.5 45.57 5.8
2017 09 07 11:00 261.9 0.0 0.00 69.3 20.7 41.65 5.6
2017 09 07 12:00 261.2 0.0 0.00 70.9 21.6 39.61 5.9
2017 09 07 13:00 260.8 0.0 0.00 72.3 22.4 38.21 6.0
2017 09 07 14:00 260.4 0.0 0.00 73.2 22.9 36.97 6.3
2017 09 07 15:00 260.1 0.0 0.00 74.4 23.6 35.43 6.4
2017 09 07 16:00 260.0 0.0 0.00 74.7 23.7 36.8 5.2
2017 09 07 17:00 260.0 0.0 0.00 74.4 23.6 37.18 5.6
2017 09 07 18:00 260.4 0.0 0.00 72.8 22.7 40.4 3.4
2017 09 07 19:00 261.7 0.0 0.00 66.9 19.4 54.2 0.2
2017 09 07 20:00 263.8 0.0 0.00 60.2 15.7 70.17 0.0
2017 09 07 21:00 265.2 0.0 0.00 56.7 13.7 77.51 0.2
2017 09 07 22:00 266.2 0.0 0.00 54.9 12.7 82.4 0.6
2017 09 07 23:00 268.4 0.0 0.00 54.8 12.6 83.7 0.0
2017 09 07 24:00 273.5 0.0 0.00 52.7 11.5 89.3 0.9
2017 09 08 1:00 274.4 0.0 0.00 52.3 11.3 88 0.1
2017 09 08 2:00 278.9 0.0 0.00 51.4 10.8 90.6 0.3
2017 09 08 3:00 Wet 297.7 0.0 0.00 50.5 10.3 93.7 0.0
2017 09 08 4:00 Wet 323.4 0.0 0.00 50.0 10.0 93.9 0.0
2017 09 08 5:00 Wet 347.2 0.0 0.00 49.5 9.7 94.7 0.0
2017 09 08 6:00 Wet 364.2 0.0 0.00 49.3 9.6 95.4 0.0
2017 09 08 7:00 Wet 326.9 0.0 0.00 52.1 11.2 93 0.0
2017 09 08 8:00 268.0 0.0 0.00 61.7 16.5 79.76 0.0
2017 09 08 9:00 262.6 0.0 0.00 70.6 21.4 53.48 0.5
2017 09 08 10:00 262.3 0.0 0.00 74.2 23.4 46.53 1.8
2017 09 08 11:00 261.8 0.0 0.00 76.2 24.6 42.13 3.1
2017 09 08 12:00 261.0 0.0 0.00 78.3 25.7 39.76 3.4
2017 09 08 13:00 260.2 0.0 0.00 80.5 27.0 32 3.5
2017 09 08 14:00 259.8 0.0 0.00 81.4 27.4 33.09 3.3
2017 09 08 15:00 259.7 0.0 0.00 81.1 27.3 34.68 3.9
2017 09 08 16:00 259.5 0.0 0.00 81.4 27.4 33.85 3.2
2017 09 08 17:00 259.9 0.0 0.00 80.3 26.9 35.94 3.3
2017 09 08 18:00 260.5 0.0 0.00 78.2 25.7 41.9 2.3
2017 09 08 19:00 262.2 0.0 0.00 72.3 22.4 56.55 0.6
2017 09 08 20:00 264.0 0.0 0.00 65.2 18.5 71.13 0.1
2017 09 08 21:00 264.9 0.0 0.00 62.7 17.1 75 0.0
2017 09 08 22:00 265.0 0.0 0.00 61.9 16.6 74.1 0.4
2017 09 08 23:00 265.1 0.0 0.00 60.9 16.0 76.12 0.1
2017 09 08 24:00 266.4 0.0 0.00 58.8 14.9 81.8 0.0
2017 09 09 1:00 267.0 0.0 0.00 59.2 15.1 81 0.0
2017 09 09 2:00 268.2 0.0 0.00 59.3 15.2 81.6 0.0
2017 09 09 3:00 268.3 0.0 0.00 60.0 15.6 80.5 1.2
2017 09 09 4:00 266.9 0.0 0.00 60.4 15.8 78.73 1.2
2017 09 09 5:00 266.4 0.0 0.00 59.6 15.3 79.38 2.1
2017 09 09 6:00 267.0 0.0 0.00 59.6 15.3 79.73 1.3
2017 09 09 7:00 265.4 0.0 0.00 60.0 15.6 80.2 1.7
2017 09 09 8:00 264.0 0.0 0.00 65.4 18.6 69.61 3.8
2017 09 09 9:00 263.2 0.0 0.00 69.9 21.1 59.07 4.8
2017 09 09 10:00 262.8 0.0 0.00 73.2 22.9 52.77 4.4
2017 09 09 11:00 262.2 0.0 0.00 75.5 24.2 48.68 4.9
2017 09 09 12:00 261.4 0.0 0.00 77.6 25.3 45.8 4.7
2017 09 09 13:00 261.0 0.0 0.00 77.8 25.5 43.85 3.9
2017 09 09 14:00 260.6 0.0 0.00 79.6 26.4 41.49 4.5
2017 09 09 15:00 260.7 0.0 0.00 79.8 26.6 41.73 4.6
2017 09 09 16:00 260.9 0.0 0.00 79.4 26.4 43.05 5.9
2017 09 09 17:00 260.8 0.0 0.00 78.0 25.6 45.72 5.8
2017 09 09 18:00 261.3 0.0 0.00 75.7 24.3 47.64 5.4
2017 09 09 19:00 262.1 0.0 0.00 71.3 21.8 56.32 3.1
2017 09 09 20:00 262.8 0.0 0.00 68.7 20.4 61.34 2.8
2017 09 09 21:00 264.2 0.0 0.00 65.1 18.4 68.69 1.1
2017 09 09 22:00 265.4 0.0 0.00 62.9 17.2 73.89 0.7
2017 09 09 23:00 266.2 0.0 0.00 60.6 15.9 79.91 0.0
2017 09 09 24:00 267.1 0.0 0.00 59.4 15.2 81.9 0.0
2017 09 10 1:00 267.5 0.0 0.00 58.4 14.7 82.7 0.3
2017 09 10 2:00 269.8 0.0 0.00 57.3 14.1 85.6 0.2
2017 09 10 3:00 279.6 0.0 0.00 55.7 13.2 89.1 0.1
2017 09 10 4:00 Wet 312.8 0.0 0.00 54.3 12.4 92.9 0.0
2017 09 10 5:00 Wet 353.3 0.0 0.00 53.4 11.9 95.1 0.0
2017 09 10 6:00 Wet 373.5 0.0 0.00 53.0 11.6 94.4 0.0
2017 09 10 7:00 Wet 341.4 0.0 0.00 56.6 13.7 85.4 0.0
2017 09 10 8:00 273.0 0.0 0.00 64.5 18.1 71.05 2.7
2017 09 10 9:00 263.5 0.0 0.00 68.5 20.3 61.55 5.4
2017 09 10 10:00 263.0 0.0 0.00 71.0 21.7 56.34 4.4
2017 09 10 11:00 262.1 0.0 0.00 73.2 22.9 49.61 3.1
2017 09 10 12:00 261.5 0.0 0.00 74.4 23.5 41.94 5.0
2017 09 10 13:00 260.7 0.0 0.00 76.6 24.8 38.13 6.6
2017 09 10 14:00 260.7 0.0 0.00 76.0 24.4 39.36 6.1
2017 09 10 15:00 260.4 0.0 0.00 76.9 24.9 39.31 6.7
2017 09 10 16:00 260.8 0.0 0.00 76.0 24.4 42.98 5.7
2017 09 10 17:00 260.8 0.0 0.00 75.2 24.0 46.05 5.3
2017 09 10 18:00 261.3 0.0 0.00 73.2 22.9 48.52 3.7
2017 09 10 19:00 261.9 0.0 0.00 69.7 20.9 53.87 2.5
2017 09 10 20:00 262.8 0.0 0.00 66.1 19.0 60.49 2.3
2017 09 10 21:00 263.5 0.0 0.00 63.9 17.7 63.55 2.9
2017 09 10 22:00 263.5 0.0 0.00 62.1 16.7 64.51 3.3
2017 09 10 23:00 263.6 0.0 0.00 60.6 15.9 64.35 3.0
2017 09 10 24:00 264.7 0.0 0.00 57.5 14.2 67.98 0.9
2017 09 11 1:00 265.4 0.0 0.00 53.8 12.1 75.12 0.9
2017 09 11 2:00 267.7 0.0 0.00 50.9 10.5 81.8 0.2
2017 09 11 3:00 272.4 0.0 0.00 48.6 9.2 87.8 0.1
2017 09 11 4:00 Wet 295.5 0.0 0.00 46.8 8.2 92.8 0.0
2017 09 11 5:00 Wet 344.7 0.0 0.00 45.5 7.5 95.6 0.0
2017 09 11 6:00 Wet 379.1 0.0 0.00 44.6 7.0 97.7 0.2
2017 09 11 7:00 Wet 347.5 0.0 0.00 46.8 8.2 96.1 0.1
2017 09 11 8:00 276.8 0.0 0.00 56.3 13.5 75.5 2.1
2017 09 11 9:00 263.5 0.0 0.00 63.0 17.3 62.8 3.8
2017 09 11 10:00 262.9 0.0 0.00 67.9 19.9 51.92 7.1
2017 09 11 11:00 262.2 0.0 0.00 69.6 20.9 47.31 8.0
2017 09 11 12:00 261.5 0.0 0.00 72.1 22.3 42.9 7.3
2017 09 11 13:00 260.9 0.0 0.00 74.0 23.3 37.18 7.9
2017 09 11 14:00 260.6 0.0 0.00 75.1 23.9 36.5 7.5
2017 09 11 15:00 260.1 0.0 0.00 75.6 24.2 35.17 8.6
2017 09 11 16:00 260.1 0.0 0.00 75.7 24.3 34.96 7.7
2017 09 11 17:00 260.1 0.0 0.00 75.0 23.9 36.22 8.6
2017 09 11 18:00 260.2 0.0 0.00 73.0 22.8 38.85 5.9
2017 09 11 19:00 261.4 0.0 0.00 66.4 19.1 52.36 3.4
2017 09 11 20:00 262.5 0.0 0.00 61.5 16.4 61.74 2.8
2017 09 11 21:00 263.0 0.0 0.00 60.7 15.9 64.84 2.8
2017 09 11 22:00 263.7 0.0 0.00 59.4 15.2 66.91 3.2
2017 09 11 23:00 263.3 0.0 0.00 59.4 15.2 64.76 3.2
2017 09 11 24:00 263.3 0.0 0.00 58.9 15.0 64.65 3.8
2017 09 12 1:00 263.1 0.0 0.00 58.6 14.8 65.23 4.4
2017 09 12 2:00 263.1 0.0 0.00 58.1 14.5 66.63 4.1
2017 09 12 3:00 263.3 0.0 0.00 57.7 14.3 66.68 3.8
2017 09 12 4:00 263.7 0.0 0.00 56.4 13.6 71.06 4.3
2017 09 12 5:00 263.7 0.0 0.00 55.8 13.2 73.23 5.6
2017 09 12 6:00 263.8 0.0 0.00 55.8 13.2 74.35 7.8
2017 09 12 7:00 263.8 0.0 0.00 55.8 13.2 76.3 8.4
2017 09 12 8:00 263.7 0.0 0.00 56.8 13.8 75.32 7.3
2017 09 12 9:00 263.7 0.0 0.00 59.5 15.3 71.16 8.3
2017 09 12 10:00 263.0 0.0 0.00 62.5 17.0 64.96 10.5
2017 09 12 11:00 262.5 0.0 0.00 64.8 18.2 59.27 11.5
2017 09 12 12:00 262.0 0.0 0.00 68.3 20.2 50.98 11.9
2017 09 12 13:00 261.0 0.0 0.00 70.9 21.6 41.67 11.7
2017 09 12 14:00 260.8 0.0 0.00 71.8 22.1 40.3 11.8
2017 09 12 15:00 260.8 0.0 0.00 70.9 21.6 42.94 11.2
2017 09 12 16:00 261.3 0.0 0.00 69.5 20.8 46 10.8
2017 09 12 17:00 Wet 380.7 0.0 0.51 65.6 18.6 63.21 7.6
2017 09 12 18:00 Wet 479.1 0.1 2.29 60.3 15.7 88.7 2.9
2017 09 12 19:00 Wet 407.0 0.0 0.25 59.8 15.4 90.9 2.1
2017 09 12 20:00 Wet 421.5 0.0 0.25 59.7 15.4 94.7 0.1
2017 09 12 21:00 Wet 381.4 0.0 0.00 60.0 15.6 87.2 3.4
2017 09 12 22:00 Wet 356.2 0.0 0.00 59.3 15.1 93.2 0.9
2017 09 12 23:00 Wet 302.6 0.0 0.00 59.1 15.1 88.5 4.7
2017 09 12 24:00 266.7 0.0 0.00 59.6 15.3 84.4 5.6
2017 09 13 1:00 266.3 0.0 0.00 59.6 15.4 85 4.3
2017 09 13 2:00 266.3 0.0 0.00 59.9 15.5 85.1 1.9
2017 09 13 3:00 266.3 0.0 0.00 59.7 15.4 84.9 2.7
2017 09 13 4:00 266.3 0.0 0.00 59.7 15.4 84.2 2.7
2017 09 13 5:00 265.9 0.0 0.00 59.6 15.3 82.1 3.6
2017 09 13 6:00 266.3 0.0 0.00 59.2 15.1 83.4 1.9
2017 09 13 7:00 265.5 0.0 0.00 59.8 15.4 81.6 3.3
2017 09 13 8:00 265.0 0.0 0.00 61.6 16.5 78.96 3.7
2017 09 13 9:00 264.6 0.0 0.00 66.0 18.9 68.33 5.2
2017 09 13 10:00 263.8 0.0 0.00 69.9 21.1 56.64 8.4
2017 09 13 11:00 262.4 0.0 0.00 73.3 22.9 47.94 8.0
2017 09 13 12:00 261.2 0.0 0.00 75.7 24.3 39.31 7.3
2017 09 13 13:00 260.0 0.0 0.00 77.3 25.2 33.7 5.8
2017 09 13 14:00 259.4 0.0 0.00 78.7 25.9 30.64 6.9
2017 09 13 15:00 259.3 0.0 0.00 79.1 26.2 31.8 8.0
2017 09 13 16:00 259.2 0.0 0.00 79.2 26.2 32.62 7.3
2017 09 13 17:00 259.3 0.0 0.00 78.4 25.8 34.64 6.0
2017 09 13 18:00 259.9 0.0 0.00 75.8 24.3 40.83 3.1
2017 09 13 19:00 262.1 0.0 0.00 68.8 20.4 57.65 0.8
2017 09 13 20:00 264.4 0.0 0.00 62.5 17.0 73.02 0.2
2017 09 13 21:00 267.3 0.0 0.00 59.0 15.0 82.3 0.4
2017 09 13 22:00 272.8 0.0 0.00 57.7 14.3 85.7 0.0
2017 09 13 23:00 Wet 285.4 0.0 0.00 56.1 13.4 89.7 0.8
2017 09 13 24:00 Wet 304.9 0.0 0.00 55.7 13.2 89.8 0.0
2017 09 14 1:00 Wet 345.0 0.0 0.00 55.1 12.9 91.9 0.0
2017 09 14 2:00 Wet 381.8 0.0 0.00 55.2 12.9 95.8 0.1
2017 09 14 3:00 Wet 417.3 0.0 0.00 55.2 12.9 98.1 0.0
2017 09 14 4:00 Wet 435.6 0.0 0.00 55.1 12.8 99.4 0.0
2017 09 14 5:00 Wet 445.2 0.0 0.00 54.0 12.2 99.4 0.0
2017 09 14 6:00 Wet 426.3 0.0 0.00 52.9 11.6 99.7 0.0
2017 09 14 7:00 Wet 374.4 0.0 0.00 54.0 12.2 99.7 0.0
2017 09 14 8:00 Wet 330.8 0.0 0.00 62.7 17.0 92.5 0.3
2017 09 14 9:00 269.5 0.0 0.00 71.0 21.7 60.62 3.6
2017 09 14 10:00 263.1 0.0 0.00 75.8 24.3 46.57 5.3
2017 09 14 11:00 261.8 0.0 0.00 78.1 25.6 43.22 5.5
2017 09 14 12:00 260.6 0.0 0.00 80.3 26.8 38.92 4.9
2017 09 14 13:00 259.6 0.0 0.00 82.3 27.9 34.78 4.1
2017 09 14 14:00 258.9 0.0 0.00 83.6 28.7 32.72 3.9
2017 09 14 15:00 258.6 0.0 0.00 84.5 29.2 31.71 4.3
2017 09 14 16:00 258.1 0.0 0.00 84.8 29.3 27.32 4.6
2017 09 14 17:00 258.3 0.0 0.00 84.1 29.0 28.18 4.1
2017 09 14 18:00 258.8 0.0 0.00 81.4 27.5 30.79 3.0
2017 09 14 19:00 260.7 0.0 0.00 73.8 23.3 46.79 0.1
2017 09 14 20:00 261.9 0.0 0.00 68.9 20.5 55.39 0.0
2017 09 14 21:00 262.5 0.0 0.00 67.7 19.9 59.94 0.7
2017 09 14 22:00 262.8 0.0 0.00 69.2 20.6 61.06 4.4
2017 09 14 23:00 263.4 0.0 0.00 67.9 20.0 70.09 4.6
2017 09 14 24:00 264.5 0.0 0.00 66.8 19.3 74.83 3.3
2017 09 15 1:00 265.8 0.0 0.00 65.0 18.3 79.81 2.9
2017 09 15 2:00 267.8 0.0 0.00 64.5 18.1 82.1 2.3
2017 09 15 3:00 277.7 0.0 0.00 62.7 17.1 87.1 2.1
2017 09 15 4:00 Wet 304.7 0.0 0.00 61.7 16.5 90.7 2.4
2017 09 15 5:00 Wet 347.2 0.0 0.00 61.6 16.4 92.1 2.2
2017 09 15 6:00 Wet 384.5 0.0 0.00 61.1 16.2 93.7 1.1
2017 09 15 7:00 Wet 389.4 0.0 0.00 61.9 16.6 93.8 2.0
2017 09 15 8:00 Wet 312.2 0.0 0.00 66.4 19.1 85 6.5
2017 09 15 9:00 265.3 0.0 0.00 70.4 21.3 75.73 7.1
2017 09 15 10:00 264.5 0.0 0.00 75.7 24.3 64.99 6.9
2017 09 15 11:00 262.9 0.0 0.00 79.3 26.3 56.32 8.3
2017 09 15 12:00 261.7 0.0 0.00 81.4 27.5 48.53 9.1
2017 09 15 13:00 260.8 0.0 0.00 83.0 28.3 44.41 7.3
2017 09 15 14:00 260.1 0.0 0.00 84.3 29.0 42.49 6.1
2017 09 15 15:00 259.8 0.0 0.00 84.8 29.4 41.55 6.7
2017 09 15 16:00 259.8 0.0 0.00 84.5 29.1 41.78 8.1
2017 09 15 17:00 260.1 0.0 0.00 83.1 28.4 44.43 8.7
2017 09 15 18:00 261.0 0.0 0.00 81.0 27.2 48.45 7.2
2017 09 15 19:00 262.2 0.0 0.00 76.9 25.0 57.12 4.0
2017 09 15 20:00 262.9 0.0 0.00 74.8 23.8 64.55 5.5
2017 09 15 21:00 263.6 0.0 0.00 73.0 22.8 70.69 6.6
2017 09 15 22:00 264.6 0.0 0.00 71.3 21.8 76.63 7.1
2017 09 15 23:00 265.3 0.0 0.00 69.5 20.9 81.3 6.6
2017 09 15 24:00 266.1 0.0 0.00 68.6 20.4 83.8 6.0
2017 09 16 1:00 267.4 0.0 0.00 67.4 19.7 87 5.5
2017 09 16 2:00 268.7 0.0 0.00 66.7 19.3 88.9 6.2
2017 09 16 3:00 269.7 0.0 0.00 66.4 19.1 89.8 6.2
2017 09 16 4:00 277.8 0.0 0.00 65.8 18.8 90.6 2.7
2017 09 16 5:00 Wet 316.7 0.0 0.00 64.9 18.3 93.1 3.2
2017 09 16 6:00 Wet 367.0 0.0 0.00 64.0 17.8 95.8 2.6
2017 09 16 7:00 Wet 381.9 0.0 0.00 64.3 18.0 96.2 3.0
2017 09 16 8:00 Wet 316.0 0.0 0.00 68.6 20.3 87.6 4.9
2017 09 16 9:00 265.5 0.0 0.00 73.3 22.9 72.69 7.7
2017 09 16 10:00 264.6 0.0 0.00 77.2 25.1 62.96 9.1
2017 09 16 11:00 263.5 0.0 0.00 78.1 25.6 58.96 10.4
2017 09 16 12:00 262.5 0.0 0.00 80.9 27.2 52.79 9.0
2017 09 16 13:00 261.7 0.0 0.00 82.9 28.3 49.19 8.4
2017 09 16 14:00 261.0 0.0 0.00 84.3 29.0 45.3 8.1
2017 09 16 15:00 260.6 0.0 0.00 84.7 29.3 43.64 7.9
2017 09 16 16:00 260.2 0.0 0.00 85.0 29.5 42.91 9.4
2017 09 16 17:00 260.4 0.0 0.00 84.2 29.0 43 8.5
2017 09 16 18:00 261.0 0.0 0.00 81.8 27.7 45.7 6.7
2017 09 16 19:00 262.2 0.0 0.00 77.3 25.1 54.39 1.5
2017 09 16 20:00 263.4 0.0 0.00 71.4 21.9 67.59 1.1
2017 09 16 21:00 264.3 0.0 0.00 70.0 21.1 72.31 0.7
2017 09 16 22:00 264.3 0.0 0.00 71.1 21.7 70.73 2.8
2017 09 16 23:00 264.7 0.0 0.00 70.7 21.5 72.12 1.9
2017 09 16 24:00 267.1 0.0 0.00 66.4 19.1 83.7 1.4
2017 09 17 1:00 265.8 0.0 0.00 68.7 20.4 78.38 3.7
2017 09 17 2:00 265.8 0.0 0.00 70.4 21.3 80.9 5.7
2017 09 17 3:00 265.7 0.0 0.00 72.5 22.5 80.2 9.0
2017 09 17 4:00 266.0 0.0 0.00 71.4 21.9 82.8 7.6
2017 09 17 5:00 268.0 0.0 0.00 68.9 20.5 88.5 2.8
2017 09 17 6:00 268.3 0.0 0.00 68.9 20.5 89.5 1.1
2017 09 17 7:00 269.1 0.0 0.00 67.9 19.9 93 2.3
2017 09 17 8:00 266.1 0.0 0.00 71.0 21.6 83.3 6.2
2017 09 17 9:00 264.8 0.0 0.00 74.7 23.7 71.12 8.8
2017 09 17 10:00 264.6 0.0 0.00 73.8 23.2 71.72 12.3
2017 09 17 11:00 264.8 0.0 0.00 70.7 21.5 77.39 12.7
2017 09 17 12:00 264.9 0.0 0.00 69.7 21.0 75.46 8.7
2017 09 17 13:00 265.2 0.0 0.00 69.8 21.0 74.77 6.7
2017 09 17 14:00 268.0 0.0 0.00 70.1 21.1 73.38 2.8
2017 09 17 15:00 268.3 0.0 0.00 69.6 20.9 76.67 4.5
2017 09 17 16:00 263.7 0.0 0.00 72.4 22.4 66.55 4.2
2017 09 17 17:00 264.3 0.0 0.00 71.4 21.9 73.56 7.0
2017 09 17 18:00 265.0 0.0 0.00 69.4 20.8 81.4 3.8
2017 09 17 19:00 269.6 0.0 0.00 67.4 19.7 86.9 1.0
2017 09 17 20:00 Wet 298.1 0.0 0.00 64.5 18.0 93.1 1.5
2017 09 17 21:00 Wet 345.8 0.0 0.00 63.4 17.4 95.7 0.0
2017 09 17 22:00 Wet 379.2 0.0 0.00 62.3 16.8 98.3 1.1
2017 09 17 23:00 Wet 392.6 0.0 0.00 62.8 17.1 98.7 1.7
2017 09 17 24:00 Wet 409.0 0.0 0.00 63.8 17.6 98.8 1.2
2017 09 18 1:00 Wet 416.4 0.0 0.00 64.5 18.0 96.7 3.3
2017 09 18 2:00 Wet 400.9 0.0 0.00 65.1 18.4 94 3.2
2017 09 18 3:00 Wet 392.0 0.0 0.00 65.1 18.4 95.5 1.4
2017 09 18 4:00 Wet 381.6 0.0 0.00 65.9 18.9 94.2 2.6
2017 09 18 5:00 Wet 369.3 0.0 0.00 66.5 19.2 93.2 2.9
2017 09 18 6:00 Wet 365.4 0.0 0.00 66.0 18.9 94.9 0.8
2017 09 18 7:00 Wet 362.3 0.0 0.00 66.4 19.1 95.2 2.2
2017 09 18 8:00 Wet 449.4 0.0 0.51 67.0 19.5 96.3 5.1
2017 09 18 9:00 Wet 327.8 0.0 0.00 67.0 19.4 95.4 4.9
2017 09 18 10:00 275.1 0.0 0.00 67.8 19.9 92.7 6.1
2017 09 18 11:00 271.3 0.0 0.00 69.1 20.6 92.1 6.0
2017 09 18 12:00 Wet 330.1 0.0 0.51 71.8 22.1 85.1 6.9
2017 09 18 13:00 Wet 440.3 0.0 0.76 69.0 20.6 94 4.7
2017 09 18 14:00 Wet 294.5 0.0 0.00 70.9 21.6 91.3 3.4
2017 09 18 15:00 265.6 0.0 0.00 73.0 22.8 84.4 3.8
2017 09 18 16:00 265.4 0.0 0.00 74.3 23.5 80.9 3.9
2017 09 18 17:00 265.3 0.0 0.00 75.0 23.9 79.8 2.4
2017 09 18 18:00 266.6 0.0 0.00 73.4 23.0 86.5 3.0
2017 09 18 19:00 278.7 0.0 0.00 71.6 22.0 91.9 1.0
2017 09 18 20:00 Wet 325.5 0.0 0.00 70.0 21.1 94.9 1.2
2017 09 18 21:00 Wet 361.4 0.0 0.00 69.7 21.0 95.3 0.8
2017 09 18 22:00 Wet 381.7 0.0 0.00 69.4 20.8 95.4 2.4
2017 09 18 23:00 Wet 396.0 0.0 0.00 69.1 20.6 93.5 2.4
2017 09 18 24:00 Wet 431.0 0.0 0.00 67.3 19.6 96.6 0.1
2017 09 19 1:00 Wet 442.2 0.0 0.00 66.2 19.0 99 0.0
2017 09 19 2:00 Wet 444.9 0.0 0.00 64.7 18.2 99 0.0
2017 09 19 3:00 Wet 394.8 0.0 0.00 62.9 17.2 99.4 0.4
2017 09 19 4:00 Wet 398.4 0.0 0.00 62.1 16.7 99.8 0.4
2017 09 19 5:00 Wet 393.0 0.0 0.00 61.8 16.5 99.9 0.3
2017 09 19 6:00 Wet 397.1 0.0 0.00 62.9 17.2 100 0.0
2017 09 19 7:00 Wet 384.0 0.0 0.00 64.3 18.0 100 0.8
2017 09 19 8:00 Wet 332.1 0.0 0.00 67.3 19.6 100 4.4
2017 09 19 9:00 282.8 0.0 0.00 69.7 21.0 97.7 3.7
2017 09 19 10:00 268.6 0.0 0.00 74.5 23.6 83.8 4.3
2017 09 19 11:00 265.0 0.0 0.00 78.3 25.7 71.84 4.9
2017 09 19 12:00 263.1 0.0 0.00 82.1 27.9 59.29 5.5
2017 09 19 13:00 262.4 0.0 0.00 84.5 29.2 54.31 6.4
2017 09 19 14:00 261.9 0.0 0.00 86.0 30.0 49.7 8.2
2017 09 19 15:00 261.2 0.0 0.00 86.9 30.5 43.73 9.7
2017 09 19 16:00 260.7 0.0 0.00 86.7 30.4 43.43 9.5
2017 09 19 17:00 261.1 0.0 0.00 85.6 29.8 45.44 8.4
2017 09 19 18:00 261.8 0.0 0.00 83.4 28.6 51.44 6.5
2017 09 19 19:00 263.1 0.0 0.00 79.1 26.2 61.03 4.0
2017 09 19 20:00 264.3 0.0 0.00 76.4 24.6 68.65 4.6
2017 09 19 21:00 264.7 0.0 0.00 75.3 24.0 72.32 6.3
2017 09 19 22:00 264.7 0.0 0.00 74.5 23.6 74.74 7.9
2017 09 19 23:00 265.4 0.0 0.00 73.7 23.1 78.9 7.7
2017 09 19 24:00 266.0 0.0 0.00 73.1 22.8 82.5 6.9
2017 09 20 1:00 267.8 0.0 0.00 71.5 22.0 88 5.8
2017 09 20 2:00 270.7 0.0 0.00 70.6 21.4 91.6 5.7
2017 09 20 3:00 272.4 0.0 0.00 70.7 21.5 91.7 5.7
2017 09 20 4:00 277.8 0.0 0.00 70.3 21.3 93.5 5.6
2017 09 20 5:00 Wet 322.5 0.0 0.00 69.4 20.8 96.1 4.8
2017 09 20 6:00 Wet 374.6 0.0 0.00 69.1 20.6 97.5 4.8
2017 09 20 7:00 Wet 401.9 0.0 0.00 69.3 20.7 98.4 4.7
2017 09 20 8:00 Wet 358.3 0.0 0.00 72.1 22.3 94.1 7.1
2017 09 20 9:00 273.7 0.0 0.00 77.0 25.0 81.9 9.0
2017 09 20 10:00 265.8 0.0 0.00 80.6 27.0 72.1 10.4
2017 09 20 11:00 264.6 0.0 0.00 83.9 28.8 65.05 8.9
2017 09 20 12:00 263.1 0.0 0.00 86.8 30.4 57.23 8.7
2017 09 20 13:00 262.3 0.0 0.00 87.9 31.1 54.1 9.3
2017 09 20 14:00 261.9 0.0 0.00 88.6 31.5 51.34 9.0
2017 09 20 15:00 261.6 0.0 0.00 88.7 31.5 51.38 7.5
2017 09 20 16:00 261.7 0.0 0.00 88.4 31.4 51.08 8.5
2017 09 20 17:00 261.5 0.0 0.00 88.2 31.2 49.42 7.3
2017 09 20 18:00 262.0 0.0 0.00 86.4 30.2 52.43 6.4
2017 09 20 19:00 263.2 0.0 0.00 82.6 28.1 61.18 5.0
2017 09 20 20:00 263.8 0.0 0.00 80.4 26.9 67.03 5.3
2017 09 20 21:00 264.7 0.0 0.00 77.7 25.4 74.72 6.0
2017 09 20 22:00 265.4 0.0 0.00 76.2 24.6 79.44 6.2
2017 09 20 23:00 266.2 0.0 0.00 75.0 23.9 83.1 5.4
2017 09 20 24:00 267.2 0.0 0.00 74.0 23.3 85.1 4.3
2017 09 21 1:00 268.8 0.0 0.00 72.9 22.7 87.7 3.8
2017 09 21 2:00 274.0 0.0 0.00 71.9 22.2 90.3 2.4
2017 09 21 3:00 Wet 309.1 0.0 0.00 70.6 21.4 94 1.5
2017 09 21 4:00 Wet 361.3 0.0 0.00 69.1 20.6 96.9 0.9
2017 09 21 5:00 Wet 396.1 0.0 0.00 69.1 20.6 97.4 0.9
2017 09 21 6:00 Wet 415.5 0.0 0.00 69.7 20.9 97 3.3
2017 09 21 7:00 Wet 413.4 0.0 0.00 70.3 21.3 97.4 3.9
2017 09 21 8:00 Wet 367.7 0.0 0.00 72.4 22.4 93.9 6.6
2017 09 21 9:00 Wet 294.8 0.0 0.00 76.2 24.5 84 7.1
2017 09 21 10:00 265.5 0.0 0.00 81.4 27.4 69.91 6.3
2017 09 21 11:00 263.6 0.0 0.00 85.1 29.5 57.83 8.1
2017 09 21 12:00 262.5 0.0 0.00 87.0 30.6 50.84 10.1
2017 09 21 13:00 261.7 0.0 0.00 87.7 30.9 48.33 11.0
2017 09 21 14:00 261.3 0.0 0.00 88.1 31.2 46.49 11.1
2017 09 21 15:00 260.9 0.0 0.00 88.5 31.4 45.29 10.1
2017 09 21 16:00 261.2 0.0 0.00 87.1 30.6 47.91 7.6
2017 09 21 17:00 261.8 0.0 0.00 85.1 29.5 51.51 6.2
2017 09 21 18:00 261.9 0.0 0.00 84.5 29.1 52.75 5.8
2017 09 21 19:00 263.0 0.0 0.00 80.9 27.2 59.64 4.0
2017 09 21 20:00 263.6 0.0 0.00 78.4 25.8 65.39 4.1
2017 09 21 21:00 264.5 0.0 0.00 76.7 24.8 70.91 4.9
2017 09 21 22:00 264.8 0.0 0.00 75.2 24.0 75.15 4.9
2017 09 21 23:00 265.5 0.0 0.00 73.6 23.1 79.89 5.3
2017 09 21 24:00 266.4 0.0 0.00 72.8 22.7 83.2 4.8
2017 09 22 1:00 267.3 0.0 0.00 72.0 22.2 86.7 5.8
2017 09 22 2:00 268.1 0.0 0.00 71.7 22.1 88.4 6.5
2017 09 22 3:00 269.3 0.0 0.00 71.4 21.9 89 4.8
2017 09 22 4:00 276.1 0.0 0.00 70.0 21.1 92.2 1.9
2017 09 22 5:00 Wet 322.3 0.0 0.00 68.6 20.3 95.7 1.6
2017 09 22 6:00 Wet 367.4 0.0 0.00 69.2 20.7 94.2 2.3
2017 09 22 7:00 Wet 373.5 0.0 0.00 69.8 21.0 93.5 1.3
2017 09 22 8:00 Wet 295.2 0.0 0.00 74.5 23.6 82.5 3.4
2017 09 22 9:00 265.7 0.0 0.00 78.0 25.6 72.81 5.6
2017 09 22 10:00 264.7 0.0 0.00 81.5 27.5 62.03 7.2
2017 09 22 11:00 263.1 0.0 0.00 84.3 29.0 54.66 8.4
2017 09 22 12:00 262.2 0.0 0.00 86.0 30.0 50.35 8.0
2017 09 22 13:00 261.3 0.0 0.00 87.1 30.6 47.26 7.9
2017 09 22 14:00 260.6 0.0 0.00 88.8 31.6 42.03 7.6
2017 09 22 15:00 260.4 0.0 0.00 88.7 31.5 41.11 6.8
2017 09 22 16:00 260.0 0.0 0.00 88.9 31.6 40.18 5.9
2017 09 22 17:00 260.2 0.0 0.00 87.4 30.8 43.8 6.0
2017 09 22 18:00 261.0 0.0 0.00 84.7 29.3 49.4 5.2
2017 09 22 19:00 262.7 0.0 0.00 80.7 27.1 57.78 1.3
2017 09 22 20:00 264.2 0.0 0.00 75.8 24.4 68.24 0.0
2017 09 22 21:00 264.9 0.0 0.00 73.3 23.0 74.07 0.4
2017 09 22 22:00 265.4 0.0 0.00 74.1 23.4 72.15 0.8
2017 09 22 23:00 266.7 0.0 0.00 71.5 22.0 78.88 0.0
2017 09 22 24:00 268.0 0.0 0.00 70.4 21.3 80.9 0.2
2017 09 23 1:00 270.8 0.0 0.00 68.2 20.1 86.4 0.0
2017 09 23 2:00 278.7 0.0 0.00 67.3 19.6 87.8 0.0
2017 09 23 3:00 Wet 286.8 0.0 0.00 67.4 19.6 86.7 0.6
2017 09 23 4:00 277.4 0.0 0.00 67.8 19.9 86.1 0.0
2017 09 23 5:00 Wet 295.1 0.0 0.00 66.6 19.2 90 0.1
2017 09 23 6:00 Wet 338.6 0.0 0.00 65.1 18.4 94.1 0.1
2017 09 23 7:00 Wet 346.1 0.0 0.00 64.9 18.3 94.3 0.0
2017 09 23 8:00 271.1 0.0 0.00 73.0 22.8 78.82 0.3
2017 09 23 9:00 264.8 0.0 0.00 79.5 26.4 65.45 2.3
2017 09 23 10:00 263.8 0.0 0.00 82.5 28.1 57.87 3.9
2017 09 23 11:00 262.0 0.0 0.00 84.3 29.0 50.76 4.6
2017 09 23 12:00 260.8 0.0 0.00 85.9 29.9 45.73 4.1
2017 09 23 13:00 260.5 0.0 0.00 86.4 30.2 43.74 3.9
2017 09 23 14:00 259.5 0.0 0.00 88.3 31.3 40.22 5.5
2017 09 23 15:00 259.8 0.0 0.00 87.4 30.8 40.77 6.5
2017 09 23 16:00 259.4 0.0 0.00 87.9 31.0 39.41 6.2
2017 09 23 17:00 259.8 0.0 0.00 86.3 30.2 40.57 5.6
2017 09 23 18:00 260.3 0.0 0.00 84.0 28.9 43.97 4.3
2017 09 23 19:00 261.7 0.0 0.00 78.9 26.1 53.2 0.6
2017 09 23 20:00 262.9 0.0 0.00 72.9 22.7 65.9 0.2
2017 09 23 21:00 264.4 0.0 0.00 70.6 21.4 72.18 0.0
2017 09 23 22:00 264.8 0.0 0.00 71.5 21.9 70.8 0.3
2017 09 23 23:00 265.0 0.0 0.00 71.5 21.9 72.04 0.4
2017 09 23 24:00 266.1 0.0 0.00 68.6 20.3 78.9 0.3
2017 09 24 1:00 265.4 0.0 0.00 70.7 21.5 73.96 2.9
2017 09 24 2:00 265.7 0.0 0.00 70.2 21.2 75.95 1.9
2017 09 24 3:00 266.4 0.0 0.00 69.1 20.6 79.56 1.7
2017 09 24 4:00 266.3 0.0 0.00 69.3 20.8 80.3 2.7
2017 09 24 5:00 266.7 0.0 0.00 69.0 20.6 82.1 2.5
2017 09 24 6:00 271.2 0.0 0.00 67.6 19.8 86.7 0.2
2017 09 24 7:00 270.5 0.0 0.00 68.2 20.1 86.5 0.6
2017 09 24 8:00 265.2 0.0 0.00 73.0 22.8 77.34 3.8
2017 09 24 9:00 264.8 0.0 0.00 76.8 24.9 69.47 5.3
2017 09 24 10:00 263.9 0.0 0.00 80.7 27.1 61.51 6.7
2017 09 24 11:00 262.5 0.0 0.00 82.8 28.2 55.2 6.8
2017 09 24 12:00 261.3 0.0 0.00 85.2 29.5 48.69 6.4
2017 09 24 13:00 260.9 0.0 0.00 85.8 29.9 46.74 5.1
2017 09 24 14:00 260.1 0.0 0.00 87.5 30.8 43.89 6.0
2017 09 24 15:00 260.0 0.0 0.00 87.6 30.9 44.21 6.3
2017 09 24 16:00 260.0 0.0 0.00 83.7 28.7 47.66 6.7
2017 09 24 17:00 260.5 0.0 0.00 82.7 28.2 53.82 4.5
2017 09 24 18:00 262.2 0.0 0.00 79.0 26.1 60.33 3.5
2017 09 24 19:00 263.4 0.0 0.00 74.8 23.8 68.54 2.2
2017 09 24 20:00 264.7 0.0 0.00 72.1 22.3 74.74 2.1
2017 09 24 21:00 266.1 0.0 0.00 69.7 20.9 80.6 1.1
2017 09 24 22:00 265.5 0.0 0.00 70.2 21.2 73.66 3.0
2017 09 24 23:00 264.8 0.0 0.00 70.1 21.1 74.18 3.7
2017 09 24 24:00 265.5 0.0 0.00 69.3 20.7 77.8 3.0
2017 09 25 1:00 266.4 0.0 0.00 68.5 20.3 80.4 1.3
2017 09 25 2:00 266.7 0.0 0.00 67.7 19.9 82.1 2.6
2017 09 25 3:00 267.5 0.0 0.00 66.8 19.3 84.4 2.3
2017 09 25 4:00 268.3 0.0 0.00 66.6 19.2 85.3 2.3
2017 09 25 5:00 268.9 0.0 0.00 66.6 19.2 86.6 2.6
2017 09 25 6:00 273.5 0.0 0.00 66.0 18.9 88.9 1.0
2017 09 25 7:00 274.7 0.0 0.00 66.3 19.1 89.3 1.9
2017 09 25 8:00 265.7 0.0 0.00 70.5 21.4 80.6 3.6
2017 09 25 9:00 264.7 0.0 0.00 76.1 24.5 66.01 4.7
2017 09 25 10:00 263.5 0.0 0.00 79.9 26.6 56.29 7.2
2017 09 25 11:00 262.3 0.0 0.00 81.5 27.5 52.28 7.2
2017 09 25 12:00 261.8 0.0 0.00 82.3 27.9 50.3 7.2
2017 09 25 13:00 261.0 0.0 0.00 83.6 28.6 46.51 7.3
2017 09 25 14:00 260.0 0.0 0.00 86.1 30.1 39.59 8.8
2017 09 25 15:00 259.9 0.0 0.00 85.2 29.6 38.75 9.0
2017 09 25 16:00 259.8 0.0 0.00 85.2 29.6 39.47 8.0
2017 09 25 17:00 260.0 0.0 0.00 83.5 28.6 42.43 7.7
2017 09 25 18:00 260.8 0.0 0.00 81.2 27.3 46.88 7.2
2017 09 25 19:00 261.7 0.0 0.00 77.5 25.3 54.64 3.7
2017 09 25 20:00 262.5 0.0 0.00 74.8 23.8 60.87 3.0
2017 09 25 21:00 263.2 0.0 0.00 72.9 22.7 66.09 3.1
2017 09 25 22:00 263.7 0.0 0.00 71.7 22.1 70.04 2.9
2017 09 25 23:00 264.7 0.0 0.00 70.8 21.5 72.73 2.6
2017 09 25 24:00 265.5 0.0 0.00 69.5 20.8 76.35 0.8
2017 09 26 1:00 268.3 0.0 0.00 67.4 19.6 81.9 0.2
2017 09 26 2:00 275.2 0.0 0.00 65.7 18.7 86.9 0.0
2017 09 26 3:00 Wet 299.4 0.0 0.00 64.5 18.1 90 0.0
2017 09 26 4:00 Wet 339.0 0.0 0.00 64.1 17.9 91.9 0.0
2017 09 26 5:00 Wet 367.8 0.0 0.00 64.1 17.9 91.4 0.3
2017 09 26 6:00 Wet 383.4 0.0 0.00 63.6 17.5 92 0.1
2017 09 26 7:00 Wet 377.9 0.0 0.00 65.7 18.7 87.6 0.7
2017 09 26 8:00 Wet 304.5 0.0 0.00 70.8 21.6 77.3 3.2
2017 09 26 9:00 264.4 0.0 0.00 77.2 25.1 60.3 6.4
2017 09 26 10:00 263.2 0.0 0.00 80.5 26.9 52.23 6.9
2017 09 26 11:00 261.9 0.0 0.00 82.6 28.1 46.91 6.2
2017 09 26 12:00 260.8 0.0 0.00 83.9 28.9 43.21 4.3
2017 09 26 13:00 260.6 0.0 0.00 83.3 28.5 44.79 4.4
2017 09 26 14:00 259.8 0.0 0.00 85.1 29.5 41.32 3.0
2017 09 26 15:00 259.7 0.0 0.00 85.3 29.6 39.6 4.2
2017 09 26 16:00 260.3 0.0 0.00 83.9 28.9 44.45 5.2
2017 09 26 17:00 261.4 0.0 0.00 82.1 27.8 51.05 4.8
2017 09 26 18:00 261.8 0.0 0.00 79.8 26.6 57.26 6.0
2017 09 26 19:00 263.1 0.0 0.00 74.5 23.6 70.88 6.8
2017 09 26 20:00 264.6 0.0 0.00 71.5 21.9 79.63 5.4
2017 09 26 21:00 265.7 0.0 0.00 70.1 21.2 84.6 4.6
2017 09 26 22:00 267.0 0.0 0.00 69.2 20.7 87.4 3.6
2017 09 26 23:00 268.9 0.0 0.00 68.0 20.0 89.6 3.1
2017 09 26 24:00 267.9 0.0 0.00 67.2 19.6 91.7 3.6
2017 09 27 1:00 270.3 0.0 0.00 66.2 19.0 93.2 4.3
2017 09 27 2:00 271.4 0.0 0.00 65.6 18.7 93.2 5.2
2017 09 27 3:00 272.4 0.0 0.00 64.7 18.2 94.7 4.7
2017 09 27 4:00 278.0 0.0 0.00 64.0 17.8 96.4 5.8
2017 09 27 5:00 270.2 0.0 0.00 64.3 18.0 95.6 6.6
2017 09 27 6:00 269.0 0.0 0.00 64.5 18.1 93.6 7.4
2017 09 27 7:00 268.0 0.0 0.00 64.5 18.1 91.7 7.2
2017 09 27 8:00 266.6 0.0 0.00 65.3 18.5 87.8 7.5
2017 09 27 9:00 265.6 0.0 0.00 66.8 19.3 82.6 7.4
2017 09 27 10:00 264.9 0.0 0.00 68.5 20.3 78.49 7.3
2017 09 27 11:00 264.8 0.0 0.00 68.7 20.4 77.6 7.5
2017 09 27 12:00 264.9 0.0 0.00 67.6 19.8 80.2 7.5
2017 09 27 13:00 265.6 0.0 0.00 65.0 18.3 86.8 8.2
2017 09 27 14:00 267.0 0.0 0.00 63.9 17.7 87.1 8.0
2017 09 27 15:00 265.7 0.0 0.00 63.2 17.4 86.5 8.1
2017 09 27 16:00 264.9 0.0 0.00 64.1 17.8 80.3 7.2
2017 09 27 17:00 264.8 0.0 0.00 64.1 17.8 76.13 7.3
2017 09 27 18:00 264.9 0.0 0.00 62.9 17.2 74.45 6.2
2017 09 27 19:00 264.9 0.0 0.00 61.8 16.5 76.75 6.7
2017 09 27 20:00 265.0 0.0 0.00 61.0 16.1 75.63 6.8
2017 09 27 21:00 265.0 0.0 0.00 60.2 15.7 72.88 5.9
2017 09 27 22:00 265.1 0.0 0.00 58.5 14.7 76.27 5.1
2017 09 27 23:00 265.1 0.0 0.00 58.4 14.6 72.4 6.5
2017 09 27 24:00 264.9 0.0 0.00 58.4 14.6 67.52 6.7
2017 09 28 1:00 264.3 0.0 0.00 58.9 14.9 63.94 6.0
2017 09 28 2:00 263.7 0.0 0.00 59.0 15.0 59.23 6.7
2017 09 28 3:00 263.7 0.0 0.00 58.7 14.9 58.27 6.0
2017 09 28 4:00 263.7 0.0 0.00 58.1 14.5 60.72 6.4
2017 09 28 5:00 263.7 0.0 0.00 57.4 14.1 61.74 6.3
2017 09 28 6:00 263.7 0.0 0.00 56.8 13.8 61.79 6.7
2017 09 28 7:00 263.7 0.0 0.00 55.8 13.2 64.89 5.7
2017 09 28 8:00 263.7 0.0 0.00 56.5 13.6 63.97 5.4
2017 09 28 9:00 263.2 0.0 0.00 59.5 15.3 56.75 6.1
2017 09 28 10:00 262.4 0.0 0.00 64.0 17.8 47.03 9.4
2017 09 28 11:00 261.5 0.0 0.00 66.9 19.4 43.36 8.2
2017 09 28 12:00 260.8 0.0 0.00 70.5 21.4 36.54 8.1
2017 09 28 13:00 260.1 0.0 0.00 72.2 22.4 34.68 7.5
2017 09 28 14:00 259.4 0.0 0.00 74.5 23.6 31.16 7.3
2017 09 28 15:00 259.2 0.0 0.00 75.3 24.1 29.54 7.7
2017 09 28 16:00 259.2 0.0 0.00 74.5 23.6 30.28 7.9
2017 09 28 17:00 259.2 0.0 0.00 73.0 22.8 32.94 7.1
2017 09 28 18:00 259.7 0.0 0.00 69.2 20.7 38.47 5.1
2017 09 28 19:00 260.9 0.0 0.00 62.7 17.1 49.65 3.3
2017 09 28 20:00 261.8 0.0 0.00 60.7 16.0 57.52 4.0
2017 09 28 21:00 262.3 0.0 0.00 59.7 15.4 61.42 3.8
2017 09 28 22:00 262.9 0.0 0.00 58.5 14.7 63.68 2.8
2017 09 28 23:00 263.0 0.0 0.00 58.8 14.9 62.65 2.4
2017 09 28 24:00 263.2 0.0 0.00 58.1 14.5 64.51 1.8
2017 09 29 1:00 264.6 0.0 0.00 54.4 12.4 74.76 0.4
2017 09 29 2:00 266.8 0.0 0.00 51.4 10.8 83.5 1.0
2017 09 29 3:00 273.4 0.0 0.00 49.5 9.8 88.3 0.3
2017 09 29 4:00 Wet 297.6 0.0 0.00 48.4 9.1 91.1 0.0
2017 09 29 5:00 Wet 337.1 0.0 0.00 47.4 8.6 94.8 0.0
2017 09 29 6:00 Wet 376.9 0.0 0.00 46.3 8.0 96.4 0.1
2017 09 29 7:00 Wet 388.4 0.0 0.00 46.8 8.2 95.9 0.0
2017 09 29 8:00 Wet 328.6 0.0 0.00 54.6 12.5 80.4 2.1
2017 09 29 9:00 263.4 0.0 0.00 64.7 18.2 49.96 4.5
2017 09 29 10:00 261.9 0.0 0.00 69.2 20.7 39.74 6.7
2017 09 29 11:00 260.7 0.0 0.00 72.1 22.3 35.53 8.3
2017 09 29 12:00 259.8 0.0 0.00 74.1 23.4 31.36 6.6
2017 09 29 13:00 259.1 0.0 0.00 75.9 24.4 28.81 5.3
2017 09 29 14:00 258.7 0.0 0.00 77.4 25.2 27.49 6.1
2017 09 29 15:00 258.4 0.0 0.00 77.4 25.2 26.89 6.5
2017 09 29 16:00 258.5 0.0 0.00 77.0 25.0 26.8 5.4
2017 09 29 17:00 258.9 0.0 0.00 75.3 24.1 30.01 3.8
2017 09 29 18:00 259.5 0.0 0.00 71.9 22.2 36.67 1.5
2017 09 29 19:00 260.8 0.0 0.00 64.0 17.8 50.34 0.6
2017 09 29 20:00 261.9 0.0 0.00 60.4 15.8 59.23 0.5
2017 09 29 21:00 262.8 0.0 0.00 57.4 14.1 66.8 0.3
2017 09 29 22:00 263.7 0.0 0.00 56.6 13.7 70.11 0.0
2017 09 29 23:00 264.8 0.0 0.00 55.3 12.9 73.31 0.0
2017 09 29 24:00 265.7 0.0 0.00 53.9 12.1 76.81 0.0
2017 09 30 1:00 266.1 0.0 0.00 52.5 11.4 79.21 0.2
2017 09 30 2:00 264.9 0.0 0.00 54.1 12.3 72.3 2.1
2017 09 30 3:00 263.9 0.0 0.00 56.7 13.7 62.04 1.4
2017 09 30 4:00 264.3 0.0 0.00 54.6 12.5 65 0.1
2017 09 30 5:00 263.8 0.0 0.00 56.8 13.8 57.94 1.4
2017 09 30 6:00 263.8 0.0 0.00 55.7 13.2 60.79 2.1
2017 09 30 7:00 263.4 0.0 0.00 55.5 13.0 62.18 4.2
2017 09 30 8:00 262.6 0.0 0.00 59.2 15.1 53.48 6.0
2017 09 30 9:00 261.8 0.0 0.00 63.7 17.6 43.73 7.2
2017 09 30 10:00 261.0 0.0 0.00 68.7 20.4 38.42 5.9
2017 09 30 11:00 260.1 0.0 0.00 72.6 22.6 34.6 5.8
2017 09 30 12:00 259.4 0.0 0.00 75.0 23.9 32.39 5.9
2017 09 30 13:00 258.9 0.0 0.00 76.4 24.7 30.99 5.8
2017 09 30 14:00 258.3 0.0 0.00 77.4 25.2 29.72 5.5
2017 09 30 15:00 258.0 0.0 0.00 77.4 25.2 29 5.9
2017 09 30 16:00 258.0 0.0 0.00 76.5 24.7 29.1 6.2
2017 09 30 17:00 258.2 0.0 0.00 75.3 24.0 29.56 5.6
2017 09 30 18:00 258.9 0.0 0.00 71.7 22.1 30.82 3.9
2017 09 30 19:00 259.5 0.0 0.00 66.4 19.1 35.32 1.8
2017 09 30 20:00 260.2 0.0 0.00 61.2 16.2 42.9 0.8
2017 09 30 21:00 260.3 0.0 0.00 61.6 16.4 38.86 2.6
2017 09 30 22:00 260.3 0.0 0.00 61.3 16.3 37.36 3.8
2017 09 30 23:00 260.3 0.0 0.00 59.7 15.4 41.75 3.4
2017 09 30 24:00 260.3 0.0 0.00 59.5 15.3 43.35 4.3
2017 10 01 1:00 260.3 0.0 0.00 59.6 15.4 44.46 5.6
2017 10 01 2:00 260.7 0.0 0.00 58.7 14.8 48.39 4.9
2017 10 01 3:00 261.0 0.0 0.00 58.6 14.8 51.08 5.7
2017 10 01 4:00 261.0 0.0 0.00 58.2 14.6 54.59 6.0
2017 10 01 5:00 261.3 0.0 0.00 57.6 14.2 57.63 5.0
2017 10 01 6:00 261.7 0.0 0.00 56.6 13.7 60.72 4.1
2017 10 01 7:00 261.8 0.0 0.00 55.4 13.0 64.27 3.3
2017 10 01 8:00 261.7 0.0 0.00 57.9 14.4 59.58 4.0
2017 10 01 9:00 261.3 0.0 0.00 62.2 16.8 52.51 5.4
2017 10 01 10:00 260.7 0.0 0.00 66.7 19.3 45.17 7.4
2017 10 01 11:00 260.1 0.0 0.00 71.1 21.7 41.64 7.8
2017 10 01 12:00 260.1 0.0 0.00 74.3 23.5 43.31 8.3
2017 10 01 13:00 259.6 0.0 0.00 76.2 24.5 42.71 8.7
2017 10 01 14:00 259.5 0.0 0.00 77.7 25.4 42.29 9.2
2017 10 01 15:00 259.7 0.0 0.00 77.7 25.4 43.6 10.2
2017 10 01 16:00 259.9 0.0 0.00 78.3 25.7 45.61 9.6
2017 10 01 17:00 260.5 0.0 0.00 77.0 25.0 49.77 10.2
2017 10 01 18:00 261.9 0.0 0.00 73.7 23.1 59.24 9.0
2017 10 01 19:00 262.7 0.0 0.00 70.4 21.3 68.61 8.7
2017 10 01 20:00 263.4 0.0 0.00 68.8 20.4 74.67 10.1
2017 10 01 21:00 263.9 0.0 0.00 67.6 19.8 77.09 8.3
2017 10 01 22:00 264.1 0.0 0.00 67.3 19.6 76.57 7.5
2017 10 01 23:00 264.1 0.0 0.00 68.2 20.1 75.73 9.7
2017 10 01 24:00 264.1 0.0 0.00 68.6 20.3 75.16 11.4
2017 10 02 1:00 264.1 0.0 0.00 68.7 20.4 73.87 11.0
2017 10 02 2:00 264.1 0.0 0.00 68.3 20.2 73.51 10.2
2017 10 02 3:00 264.1 0.0 0.00 67.8 19.9 72.33 8.4
2017 10 02 4:00 263.8 0.0 0.00 67.3 19.6 71.07 10.8
2017 10 02 5:00 264.2 0.0 0.00 65.5 18.6 74.24 9.1
2017 10 02 6:00 264.9 0.0 0.00 64.1 17.8 77.47 8.9
2017 10 02 7:00 264.8 0.0 0.00 63.4 17.4 78.48 8.3
2017 10 02 8:00 264.0 0.0 0.00 65.2 18.5 73.07 9.6
2017 10 02 9:00 263.5 0.0 0.00 68.3 20.2 66.3 10.9
2017 10 02 10:00 263.0 0.0 0.00 71.6 22.0 61.91 10.0
2017 10 02 11:00 262.3 0.0 0.00 75.3 24.0 57.29 10.0
2017 10 02 12:00 261.8 0.0 0.00 78.0 25.6 52.94 11.8
2017 10 02 13:00 261.3 0.0 0.00 79.3 26.3 50.83 10.7
2017 10 02 14:00 260.8 0.0 0.00 80.0 26.6 49.59 11.5
2017 10 02 15:00 260.7 0.0 0.00 80.1 26.7 47.58 11.2
2017 10 02 16:00 260.4 0.0 0.00 80.0 26.7 45.44 11.9
2017 10 02 17:00 260.7 0.0 0.00 78.5 25.8 49.3 11.6
2017 10 02 18:00 261.5 0.0 0.00 76.0 24.4 55.87 10.0
2017 10 02 19:00 262.4 0.0 0.00 72.5 22.5 64.78 11.2
2017 10 02 20:00 262.7 0.0 0.00 70.9 21.6 66.99 11.8
2017 10 02 21:00 262.8 0.0 0.00 69.4 20.8 70.31 12.0
2017 10 02 22:00 263.6 0.0 0.00 68.5 20.3 76.55 14.5
2017 10 02 23:00 265.7 0.0 0.00 66.2 19.0 90 14.1
2017 10 02 24:00 267.3 0.0 0.00 65.2 18.4 94.5 13.8
2017 10 03 1:00 266.5 0.0 0.00 65.0 18.3 96.8 13.0
2017 10 03 2:00 Wet 286.6 0.0 0.00 65.1 18.4 98.4 13.8
2017 10 03 3:00 Wet 306.6 0.0 0.00 65.8 18.8 97.5 13.5
2017 10 03 4:00 Wet 284.1 0.0 0.00 66.3 19.1 97.2 11.8
2017 10 03 5:00 266.8 0.0 0.00 66.6 19.2 97 10.0
2017 10 03 6:00 273.7 0.0 0.00 66.9 19.4 96.3 9.7
2017 10 03 7:00 274.0 0.0 0.00 67.1 19.5 95.3 9.8
2017 10 03 8:00 268.9 0.0 0.00 66.6 19.2 96 11.1
2017 10 03 9:00 Wet 427.2 0.1 3.30 66.1 18.9 97.8 11.0
2017 10 03 10:00 Wet 517.5 0.3 7.37 66.2 19.0 98.1 8.3
2017 10 03 11:00 Wet 428.5 0.0 0.76 66.9 19.4 97.8 9.8
2017 10 03 12:00 278.6 0.0 0.00 67.7 19.8 96.6 11.2
2017 10 03 13:00 267.3 0.0 0.00 68.8 20.4 94.1 9.9
2017 10 03 14:00 Wet 337.1 0.0 0.25 69.4 20.8 92.9 8.4
2017 10 03 15:00 277.2 0.0 0.00 70.1 21.2 91.7 7.8
2017 10 03 16:00 267.5 0.0 0.00 70.0 21.1 92 6.8
2017 10 03 17:00 Wet 358.8 0.0 0.00 69.7 21.0 93.1 7.7
2017 10 03 18:00 Wet 385.7 0.0 0.00 68.8 20.4 96.3 6.4
2017 10 03 19:00 Wet 363.2 0.0 0.00 68.3 20.2 96.6 6.1
2017 10 03 20:00 Wet 349.8 0.0 0.00 67.9 19.9 97.1 3.7
2017 10 03 21:00 Wet 344.4 0.0 0.00 67.7 19.8 97.2 4.5
2017 10 03 22:00 Wet 365.2 0.0 0.00 67.3 19.6 97.7 5.4
2017 10 03 23:00 Wet 384.2 0.0 0.00 67.1 19.5 97.6 5.0
2017 10 03 24:00 Wet 394.4 0.0 0.00 66.4 19.1 99.9 3.3
2017 10 04 1:00 Wet 353.8 0.0 0.00 66.4 19.1 99.8 5.2
2017 10 04 2:00 Wet 361.9 0.0 0.00 67.1 19.5 96.5 4.3
2017 10 04 3:00 Wet 346.3 0.0 0.00 66.9 19.4 96.6 3.5
2017 10 04 4:00 Wet 298.7 0.0 0.00 67.6 19.8 93.1 5.8
2017 10 04 5:00 Wet 308.8 0.0 0.00 67.6 19.8 91.6 5.1
2017 10 04 6:00 271.4 0.0 0.00 68.0 20.0 89.7 4.1
2017 10 04 7:00 269.2 0.0 0.00 67.9 19.9 90.3 4.2
2017 10 04 8:00 268.1 0.0 0.00 68.7 20.4 89.1 4.4
2017 10 04 9:00 266.9 0.0 0.00 70.1 21.2 84.3 5.5
2017 10 04 10:00 265.8 0.0 0.00 71.8 22.1 79.16 4.5
2017 10 04 11:00 265.0 0.0 0.00 73.4 23.0 75.76 5.6
2017 10 04 12:00 264.7 0.0 0.00 75.2 24.0 72.37 5.2
2017 10 04 13:00 264.2 0.0 0.00 76.3 24.6 70.04 4.9
2017 10 04 14:00 264.6 0.0 0.00 75.9 24.4 69.12 5.1
2017 10 04 15:00 267.7 0.0 0.00 74.8 23.8 71.98 4.7
2017 10 04 16:00 Wet 402.0 0.0 0.25 71.8 22.1 87.1 2.7
2017 10 04 17:00 Wet 345.9 0.0 0.00 70.4 21.3 90.2 2.8
2017 10 04 18:00 272.1 0.0 0.00 69.6 20.9 93.4 0.8
2017 10 04 19:00 Wet 290.3 0.0 0.00 69.1 20.6 95.5 0.2
2017 10 04 20:00 Wet 383.7 0.0 0.00 68.3 20.1 97.3 0.0
2017 10 04 21:00 Wet 396.9 0.0 0.00 67.5 19.7 98.4 0.3
2017 10 04 22:00 Wet 387.4 0.0 0.00 66.7 19.3 99 0.3
2017 10 04 23:00 Wet 362.0 0.0 0.00 65.8 18.8 99 0.3
2017 10 04 24:00 Wet 374.3 0.0 0.00 64.3 18.0 99.3 0.3
2017 10 05 1:00 Wet 358.5 0.0 0.00 64.0 17.8 99.8 0.0
2017 10 05 2:00 Wet 361.8 0.0 0.00 64.3 18.0 99.8 0.0
2017 10 05 3:00 Wet 355.4 0.0 0.00 64.8 18.2 99.8 0.1
2017 10 05 4:00 Wet 371.8 0.0 0.00 64.8 18.2 99.8 0.3
2017 10 05 5:00 Wet 375.8 0.0 0.00 64.3 17.9 99.4 0.0
2017 10 05 6:00 Wet 374.3 0.0 0.00 64.1 17.8 99.4 0.6
2017 10 05 7:00 Wet 371.6 0.0 0.00 64.1 17.8 99.1 1.4
2017 10 05 8:00 Wet 319.9 0.0 0.00 67.2 19.6 93.2 4.2
2017 10 05 9:00 269.6 0.0 0.00 70.8 21.6 78.02 5.8
2017 10 05 10:00 265.5 0.0 0.00 72.4 22.5 69.87 5.7
2017 10 05 11:00 264.4 0.0 0.00 74.6 23.7 62.72 6.7
2017 10 05 12:00 263.1 0.0 0.00 77.5 25.3 56.63 6.4
2017 10 05 13:00 262.3 0.0 0.00 78.5 25.8 54.17 6.3
2017 10 05 14:00 262.0 0.0 0.00 78.9 26.0 52.73 4.7
2017 10 05 15:00 261.2 0.0 0.00 79.7 26.5 50.08 4.6
2017 10 05 16:00 261.8 0.0 0.00 79.5 26.4 51.23 3.7
2017 10 05 17:00 262.3 0.0 0.00 78.3 25.7 53.47 2.1
2017 10 05 18:00 263.2 0.0 0.00 76.0 24.4 59.96 0.9
2017 10 05 19:00 264.6 0.0 0.00 72.8 22.7 66.1 0.2
2017 10 05 20:00 265.4 0.0 0.00 69.9 21.0 71.21 0.2
2017 10 05 21:00 264.8 0.0 0.00 70.1 21.1 67.57 3.3
2017 10 05 22:00 264.8 0.0 0.00 69.7 21.0 66.64 3.7
2017 10 05 23:00 264.8 0.0 0.00 68.6 20.3 70.09 3.1
2017 10 05 24:00 264.8 0.0 0.00 68.9 20.5 68.21 3.4
2017 10 06 1:00 264.8 0.0 0.00 67.9 19.9 71.67 2.4
2017 10 06 2:00 264.8 0.0 0.00 67.2 19.5 73.76 2.2
2017 10 06 3:00 264.9 0.0 0.00 66.6 19.2 75.43 3.2
2017 10 06 4:00 264.8 0.0 0.00 67.2 19.5 74.05 3.5
2017 10 06 5:00 265.2 0.0 0.00 66.8 19.4 75.36 4.2
2017 10 06 6:00 268.3 0.0 0.00 65.7 18.7 79.85 4.4
2017 10 06 7:00 268.2 0.0 0.00 65.4 18.6 81 3.9
2017 10 06 8:00 265.3 0.0 0.00 66.1 18.9 79.98 4.3
2017 10 06 9:00 264.7 0.0 0.00 69.2 20.7 73.57 5.1
2017 10 06 10:00 263.9 0.0 0.00 72.9 22.7 64.22 7.5
2017 10 06 11:00 263.3 0.0 0.00 73.9 23.3 62.06 8.1
2017 10 06 12:00 262.8 0.0 0.00 75.4 24.1 59.47 8.0
2017 10 06 13:00 262.3 0.0 0.00 76.8 24.9 57.51 7.2
2017 10 06 14:00 261.7 0.0 0.00 78.4 25.8 53.32 7.8
2017 10 06 15:00 261.4 0.0 0.00 79.2 26.2 49.47 10.3
2017 10 06 16:00 262.0 0.0 0.00 78.2 25.7 48.99 9.6
2017 10 06 17:00 262.1 0.0 0.00 77.5 25.3 48.93 8.3
2017 10 06 18:00 262.1 0.0 0.00 76.0 24.4 52.37 8.0
2017 10 06 19:00 262.7 0.0 0.00 73.8 23.2 57.95 7.7
2017 10 06 20:00 262.7 0.0 0.00 72.6 22.6 60.88 10.6
2017 10 06 21:00 263.4 0.0 0.00 71.5 21.9 63.71 12.4
2017 10 06 22:00 263.5 0.0 0.00 70.4 21.3 65.98 12.0
2017 10 06 23:00 263.4 0.0 0.00 69.7 20.9 66.54 11.9
2017 10 06 24:00 263.4 0.0 0.00 69.2 20.7 67.3 10.9
2017 10 07 1:00 263.5 0.0 0.00 69.0 20.6 67.31 11.0
2017 10 07 2:00 263.5 0.0 0.00 68.7 20.4 68.24 11.2
2017 10 07 3:00 264.0 0.0 0.00 68.1 20.1 70.25 9.2
2017 10 07 4:00 264.2 0.0 0.00 67.8 19.9 71.94 10.0
2017 10 07 5:00 264.2 0.0 0.00 67.7 19.8 72.87 7.0
2017 10 07 6:00 264.8 0.0 0.00 67.2 19.5 74.53 8.2
2017 10 07 7:00 264.8 0.0 0.00 67.0 19.4 75.04 8.9
2017 10 07 8:00 264.3 0.0 0.00 69.1 20.6 71.06 11.4
2017 10 07 9:00 263.6 0.0 0.00 70.8 21.5 66.77 11.3
2017 10 07 10:00 265.8 0.0 0.00 70.2 21.2 70.26 11.8
2017 10 07 11:00 Wet 330.3 0.0 0.00 67.3 19.6 82.5 10.9
2017 10 07 12:00 Wet 372.1 0.0 0.00 64.8 18.2 95.3 8.9
2017 10 07 13:00 Wet 427.4 0.0 0.76 65.1 18.4 95.4 7.4
2017 10 07 14:00 267.6 0.0 0.00 66.7 19.3 91.1 8.9
2017 10 07 15:00 264.4 0.0 0.00 70.3 21.3 77.64 9.8
2017 10 07 16:00 263.4 0.0 0.00 72.9 22.7 66 7.5
2017 10 07 17:00 262.9 0.0 0.00 73.5 23.1 63.33 5.4
2017 10 07 18:00 264.1 0.0 0.00 71.3 21.8 67.56 1.5
2017 10 07 19:00 Wet 294.5 0.0 0.00 64.1 17.9 86.6 0.9
2017 10 07 20:00 Wet 382.2 0.0 0.00 60.5 15.9 94.6 0.7
2017 10 07 21:00 Wet 433.4 0.0 0.00 58.0 14.5 97.2 1.3
2017 10 07 22:00 Wet 415.4 0.0 0.00 56.8 13.8 97.2 0.5
2017 10 07 23:00 Wet 404.0 0.0 0.00 54.7 12.6 98.2 1.2
2017 10 07 24:00 Wet 410.5 0.0 0.00 53.5 11.9 99 0.2
2017 10 08 1:00 Wet 409.3 0.0 0.00 52.8 11.6 98.8 0.0
2017 10 08 2:00 Wet 401.9 0.0 0.00 52.5 11.4 99.4 0.4
2017 10 08 3:00 Wet 399.3 0.0 0.00 53.4 11.9 99.6 0.1
2017 10 08 4:00 Wet 393.1 0.0 0.00 53.2 11.8 98.2 0.4
2017 10 08 5:00 Wet 393.9 0.0 0.00 53.3 11.8 98 0.5
2017 10 08 6:00 Wet 385.7 0.0 0.00 54.8 12.7 95.4 0.9
2017 10 08 7:00 Wet 359.0 0.0 0.00 58.4 14.7 88.9 1.1
2017 10 08 8:00 Wet 314.4 0.0 0.00 63.8 17.6 83.2 3.6
2017 10 08 9:00 268.5 0.0 0.00 68.0 20.0 75.1 6.8
2017 10 08 10:00 265.0 0.0 0.00 70.7 21.5 66.77 7.2
2017 10 08 11:00 263.2 0.0 0.00 74.1 23.4 56.64 5.5
2017 10 08 12:00 262.0 0.0 0.00 77.2 25.1 49.64 4.4
2017 10 08 13:00 261.0 0.0 0.00 79.6 26.4 45.23 4.1
2017 10 08 14:00 260.3 0.0 0.00 80.7 27.0 42.74 3.9
2017 10 08 15:00 260.4 0.0 0.00 80.5 26.9 43.82 4.9
2017 10 08 16:00 260.6 0.0 0.00 79.9 26.6 45.85 2.8
2017 10 08 17:00 262.0 0.0 0.00 77.2 25.1 58.83 3.9
2017 10 08 18:00 263.2 0.0 0.00 74.8 23.8 67.75 3.7
2017 10 08 19:00 264.8 0.0 0.00 71.8 22.1 76.3 4.4
2017 10 08 20:00 265.8 0.0 0.00 69.8 21.0 83.3 5.8
2017 10 08 21:00 267.9 0.0 0.00 68.2 20.1 88.6 4.9
2017 10 08 22:00 270.2 0.0 0.00 67.4 19.6 91.2 4.1
2017 10 08 23:00 Wet 300.7 0.0 0.00 66.0 18.9 93.9 2.5
2017 10 08 24:00 Wet 375.5 0.0 0.00 65.0 18.4 96.8 1.7
2017 10 09 1:00 Wet 406.3 0.0 0.00 65.1 18.4 98.3 1.4
2017 10 09 2:00 Wet 425.0 0.0 0.00 65.2 18.5 98.4 0.8
2017 10 09 3:00 Wet 369.8 0.0 0.00 65.6 18.6 99.7 2.1
2017 10 09 4:00 Wet 365.9 0.0 0.00 66.4 19.1 99.5 2.9
2017 10 09 5:00 Wet 364.8 0.0 0.00 66.1 19.0 99.9 2.7
2017 10 09 6:00 Wet 368.0 0.0 0.00 66.4 19.1 99.9 1.0
2017 10 09 7:00 Wet 368.9 0.0 0.00 65.9 18.8 99.9 3.0
2017 10 09 8:00 Wet 334.2 0.0 0.00 65.8 18.8 99.9 1.5
2017 10 09 9:00 Wet 295.8 0.0 0.00 66.8 19.3 97.7 3.2
2017 10 09 10:00 266.9 0.0 0.00 69.4 20.8 87.7 4.9
2017 10 09 11:00 264.2 0.0 0.00 75.8 24.3 62.26 4.6
2017 10 09 12:00 261.7 0.0 0.00 80.7 27.1 41.13 5.7
2017 10 09 13:00 260.7 0.0 0.00 82.3 27.9 38.71 6.1
2017 10 09 14:00 260.2 0.0 0.00 83.2 28.5 40.62 5.2
2017 10 09 15:00 260.1 0.0 0.00 83.4 28.5 42.55 5.5
2017 10 09 16:00 260.2 0.0 0.00 83.1 28.4 44.81 3.8
2017 10 09 17:00 260.7 0.0 0.00 82.2 27.9 48.17 3.8
2017 10 09 18:00 261.9 0.0 0.00 79.9 26.6 55.88 3.5
2017 10 09 19:00 263.6 0.0 0.00 75.9 24.4 65.89 1.5
2017 10 09 20:00 265.0 0.0 0.00 73.1 22.8 77.25 3.3
2017 10 09 21:00 266.8 0.0 0.00 71.2 21.8 86.5 4.8
CST mV in mm F C % mph
Year Month Day Hour Leaf Wetness Total
Precipitation
Avg. Temp Avg. Rel.
Humidity
Wind
Speed

Back to the top of the page